Time;durP1;ratioP1;P1;durP2;ratioP2;P2;SDS_P1;SDS_P2;PMS_P1;PMS_P2;Temp;Humidity;BMP_temperature;BMP_pressure;BME280_temperature;BME280_humidity;BME280_pressure;Samples;Min_cycle;Max_cycle;Signal;HPM_P1;HPM_P2
2022/10/09 00:01:01;;;;;;;8.70;2.27;;;;;;;7.60;93.16;102445.84;4988595;28;20215;-71
2022/10/09 00:03:26;;;;;;;4.60;2.47;;;;;;;7.49;93.77;102452.00;4987318;28;20188;-70
2022/10/09 00:05:52;;;;;;;5.60;2.83;;;;;;;7.54;94.05;102447.16;5004458;28;20680;-72
2022/10/09 00:08:17;;;;;;;7.60;2.40;;;;;;;7.51;94.25;102450.41;4989525;28;20188;-72
2022/10/09 00:10:43;;;;;;;5.40;2.87;;;;;;;7.47;94.19;102453.56;4990016;28;20216;-71
2022/10/09 00:13:09;;;;;;;6.03;2.57;;;;;;;7.42;94.63;102454.13;5004986;28;20242;-71
2022/10/09 00:15:39;;;;;;;5.20;2.10;;;;;;;7.42;95.00;102457.53;4988913;28;20716;-72
2022/10/09 00:18:06;;;;;;;9.10;2.50;;;;;;;7.41;94.76;102465.97;5002132;28;20282;-72
2022/10/09 00:20:38;;;;;;;5.63;2.33;;;;;;;7.39;95.23;102461.59;4983250;28;20220;-70
2022/10/09 00:23:03;;;;;;;4.97;1.97;;;;;;;7.37;95.06;102461.50;4986778;28;20211;-71
2022/10/09 00:25:29;;;;;;;9.20;2.50;;;;;;;7.31;94.91;102473.00;4985485;28;20230;-71
2022/10/09 00:27:58;;;;;;;7.27;2.17;;;;;;;7.26;94.52;102477.84;4985203;28;20601;-72
2022/10/09 00:30:24;;;;;;;7.87;2.90;;;;;;;7.30;95.35;102477.22;5003333;28;20207;-72
2022/10/09 00:32:49;;;;;;;7.67;2.60;;;;;;;7.36;95.14;102482.66;4986599;28;20257;-72
2022/10/09 00:35:14;;;;;;;7.47;2.70;;;;;;;7.32;95.90;102485.81;4988266;28;20246;-72
2022/10/09 00:37:40;;;;;;;9.93;3.07;;;;;;;7.22;96.05;102478.44;4982727;28;20604;-72
2022/10/09 00:40:06;;;;;;;8.47;3.10;;;;;;;7.21;95.77;102497.06;4987016;28;20374;-72
2022/10/09 00:42:31;;;;;;;9.83;2.80;;;;;;;7.21;95.46;102489.41;4983490;28;20290;-71
2022/10/09 00:45:00;;;;;;;6.37;3.10;;;;;;;7.17;95.79;102492.56;4985410;28;20306;-71
2022/10/09 00:47:32;;;;;;;6.63;2.83;;;;;;;7.11;96.16;102489.66;4985117;28;20712;-71
2022/10/09 00:50:14;;;;;;;7.63;3.27;;;;;;;7.06;95.82;102487.63;4983601;28;20622;-72
2022/10/09 00:52:40;;;;;;;5.97;3.07;;;;;;;7.04;95.69;102496.84;4983061;28;20241;-70
2022/10/09 00:55:08;;;;;;;4.90;2.80;;;;;;;7.00;95.65;102500.00;4985334;28;20196;-71
2022/10/09 00:57:34;;;;;;;7.40;3.07;;;;;;;6.94;94.92;102495.41;4983521;28;20191;-71
2022/10/09 01:00:05;;;;;;;7.00;2.90;;;;;;;6.93;95.55;102500.41;4982854;28;20196;-71
2022/10/09 01:02:30;;;;;;;4.87;2.77;;;;;;;6.92;95.01;102493.56;4983678;28;20180;-72
2022/10/09 01:04:55;;;;;;;4.37;2.37;;;;;;;6.87;94.78;102495.81;4983737;28;20636;-72
2022/10/09 01:07:46;;;;;;;6.90;2.87;;;;;;;6.96;95.40;102498.06;4986084;28;20249;-72
2022/10/09 01:10:31;;;;;;;6.70;2.40;;;;;;;6.98;95.80;102499.91;4987907;28;20542;-72
2022/10/09 01:13:03;;;;;;;7.53;2.60;;;;;;;6.95;96.15;102503.94;4983445;28;20215;-72
2022/10/09 01:15:39;;;;;;;7.37;2.60;;;;;;;6.95;95.99;102504.81;5003777;28;20737;-72
2022/10/09 01:18:04;;;;;;;6.60;2.70;;;;;;;6.95;96.02;102502.25;4987092;28;20297;-71
2022/10/09 01:20:42;;;;;;;7.20;2.43;;;;;;;6.95;95.91;102511.59;4997414;28;20327;-72
2022/10/09 01:23:27;;;;;;;5.00;2.53;;;;;;;6.92;95.75;102513.94;4988591;28;20195;-72
2022/10/09 01:26:04;;;;;;;6.63;2.50;;;;;;;6.81;95.91;102510.72;4982993;28;20219;-70
2022/10/09 01:28:31;;;;;;;5.10;2.43;;;;;;;6.78;95.76;102517.31;4989074;28;20637;-72
2022/10/09 01:31:00;;;;;;;3.00;2.00;;;;;;;6.67;95.84;102514.09;4988914;28;20696;-72
2022/10/09 01:33:28;;;;;;;6.27;2.23;;;;;;;6.65;95.98;102513.13;4989005;28;20204;-71
2022/10/09 01:35:54;;;;;;;5.03;2.50;;;;;;;6.63;94.93;102509.59;4988749;28;20196;-72
2022/10/09 01:38:22;;;;;;;4.13;2.30;;;;;;;6.62;95.30;102506.94;4988045;28;20262;-70
2022/10/09 01:40:49;;;;;;;5.20;2.27;;;;;;;6.54;94.99;102506.47;4989731;28;20250;-71
2022/10/09 01:43:15;;;;;;;5.13;2.40;;;;;;;6.56;95.41;102504.03;4986657;28;20657;-71
2022/10/09 01:45:43;;;;;;;6.47;2.17;;;;;;;6.54;95.36;102503.94;5004741;28;20183;-71
2022/10/09 01:48:19;;;;;;;4.70;1.97;;;;;;;6.54;95.86;102508.16;4988851;28;20211;-72
2022/10/09 01:50:50;;;;;;;3.57;2.10;;;;;;;6.56;95.56;102509.13;4986760;28;20258;-71
2022/10/09 01:53:19;;;;;;;5.57;2.03;;;;;;;6.52;95.24;102502.97;4988591;28;20192;-72
2022/10/09 01:56:01;;;;;;;4.67;2.30;;;;;;;6.49;95.61;102509.56;4986162;28;20192;-72
2022/10/09 01:58:40;;;;;;;4.60;2.03;;;;;;;6.44;95.96;102509.25;4989400;28;20210;-71
2022/10/09 02:01:28;;;;;;;4.73;2.00;;;;;;;6.46;95.37;102504.25;4988307;28;20793;-71
2022/10/09 02:03:57;;;;;;;2.73;1.57;;;;;;;6.42;96.02;102509.94;4988369;28;20295;-71
2022/10/09 02:06:24;;;;;;;4.77;2.00;;;;;;;6.43;95.59;102509.16;4988936;28;20184;-72
2022/10/09 02:08:52;;;;;;;5.97;2.23;;;;;;;6.37;95.50;102504.56;4989285;28;20180;-70
2022/10/09 02:11:18;;;;;;;4.40;2.67;;;;;;;6.32;95.64;102508.50;5007598;28;20207;-71
2022/10/09 02:13:46;;;;;;;6.87;2.40;;;;;;;6.35;95.79;102506.13;4993581;28;20629;-72
2022/10/09 02:16:16;;;;;;;4.03;2.30;;;;;;;6.28;95.68;102506.53;5008442;28;20202;-72
2022/10/09 02:18:44;;;;;;;3.20;2.53;;;;;;;6.22;96.15;102511.22;4992427;28;20295;-72
2022/10/09 02:21:15;;;;;;;4.50;2.80;;;;;;;6.22;95.87;102508.69;5006651;28;20235;-71
2022/10/09 02:23:44;;;;;;;3.63;2.70;;;;;;;6.19;96.26;102508.50;4988639;28;20646;-70
2022/10/09 02:26:12;;;;;;;8.60;3.10;;;;;;;6.19;95.95;102513.59;4992782;28;20286;-72
2022/10/09 02:28:38;;;;;;;5.10;2.30;;;;;;;6.16;96.26;102512.50;4992201;28;20195;-71
2022/10/09 02:31:27;;;;;;;3.80;2.33;;;;;;;6.19;95.92;102516.13;4992868;28;20215;-70
2022/10/09 02:33:55;;;;;;;5.47;2.63;;;;;;;6.16;96.30;102522.66;4990377;28;20359;-71
2022/10/09 02:36:20;;;;;;;2.60;1.97;;;;;;;6.18;96.38;102526.19;4990532;28;20192;-70
2022/10/09 02:38:46;;;;;;;6.53;2.90;;;;;;;6.13;95.94;102525.03;5008000;28;20700;-71
2022/10/09 02:41:11;;;;;;;3.37;2.40;;;;;;;6.11;96.49;102527.47;4991061;28;20215;-70
2022/10/09 02:43:37;;;;;;;5.30;2.20;;;;;;;6.11;96.30;102521.50;4992736;28;20311;-71
2022/10/09 02:46:02;;;;;;;4.77;2.60;;;;;;;6.11;96.62;102522.38;4989993;28;20198;-71
2022/10/09 02:48:27;;;;;;;5.63;2.90;;;;;;;6.09;96.36;102528.16;4992165;28;20191;-71
2022/10/09 02:50:53;;;;;;;3.23;2.47;;;;;;;6.09;96.27;102523.97;4989137;28;20211;-71
2022/10/09 02:53:18;;;;;;;4.93;2.90;;;;;;;6.10;96.22;102518.09;4988312;28;20610;-70
2022/10/09 02:55:44;;;;;;;4.53;2.70;;;;;;;6.11;97.06;102518.94;4989695;28;20194;-72
2022/10/09 02:58:10;;;;;;;5.07;3.10;;;;;;;6.20;96.92;102532.25;4991663;28;20204;-71
2022/10/09 03:00:37;;;;;;;4.97;2.93;;;;;;;6.14;97.23;102529.31;5003241;28;20238;-71
2022/10/09 03:03:02;;;;;;;8.13;3.07;;;;;;;6.16;97.55;102536.28;4990662;28;20267;-71
2022/10/09 03:05:27;;;;;;;5.33;2.73;;;;;;;6.20;97.78;102534.78;4990276;28;20699;-71
2022/10/09 03:07:53;;;;;;;4.53;2.80;;;;;;;6.09;97.66;102535.78;4990243;28;20195;-72
2022/10/09 03:10:20;;;;;;;4.50;2.77;;;;;;;6.08;98.54;102539.13;4989747;28;20633;-71
2022/10/09 03:12:46;;;;;;;4.93;2.73;;;;;;;6.04;97.71;102532.06;4986714;28;20319;-72
2022/10/09 03:15:11;;;;;;;4.33;2.50;;;;;;;6.04;97.49;102534.63;4988834;28;20661;-71
2022/10/09 03:17:37;;;;;;;5.50;2.83;;;;;;;6.03;97.67;102536.25;4985655;28;20204;-71
2022/10/09 03:20:03;;;;;;;4.83;2.87;;;;;;;6.05;97.69;102542.34;4990367;28;20192;-71
2022/10/09 03:22:29;;;;;;;4.73;3.03;;;;;;;6.02;97.67;102552.31;4998925;28;20215;-70
2022/10/09 03:24:54;;;;;;;5.60;2.63;;;;;;;6.03;97.90;102548.97;4987665;28;20310;-71
2022/10/09 03:27:20;;;;;;;4.97;3.10;;;;;;;6.02;98.16;102546.31;4989220;28;20192;-72
2022/10/09 03:29:45;;;;;;;6.00;3.30;;;;;;;6.01;97.71;102544.56;4986569;28;20205;-70
2022/10/09 03:32:11;;;;;;;4.70;3.20;;;;;;;6.05;98.09;102546.53;4985354;28;20204;-72
2022/10/09 03:34:36;;;;;;;3.30;2.60;;;;;;;6.05;98.17;102551.63;4988854;28;20674;-72
2022/10/09 03:37:02;;;;;;;5.83;3.13;;;;;;;6.05;97.87;102552.50;4984747;28;20187;-71
2022/10/09 03:39:27;;;;;;;6.17;3.30;;;;;;;6.10;98.77;102555.34;4986470;28;20239;-70
2022/10/09 03:41:53;;;;;;;7.23;3.40;;;;;;;6.14;98.53;102560.72;4985183;28;20656;-71
2022/10/09 03:44:18;;;;;;;5.63;3.67;;;;;;;6.21;99.69;102554.38;5002228;28;20245;-71
2022/10/09 03:46:43;;;;;;;7.93;3.40;;;;;;;6.21;99.48;102557.78;4983039;28;20199;-72
2022/10/09 03:49:09;;;;;;;6.40;3.87;;;;;;;6.23;99.96;102558.78;4986751;28;20246;-72
2022/10/09 03:51:34;;;;;;;8.30;3.90;;;;;;;6.18;100.00;102565.22;4986312;28;20208;-71
2022/10/09 03:54:00;;;;;;;8.33;3.80;;;;;;;6.17;100.00;102567.69;4981910;28;20192;-72
2022/10/09 03:56:25;;;;;;;7.00;4.00;;;;;;;6.17;100.00;102575.31;4990378;28;20199;-71
2022/10/09 03:58:51;;;;;;;6.10;3.53;;;;;;;6.09;100.00;102579.91;4985812;28;20211;-71
2022/10/09 04:01:16;;;;;;;8.90;3.40;;;;;;;6.03;100.00;102568.44;4989552;28;20208;-72
2022/10/09 04:03:41;;;;;;;6.20;3.60;;;;;;;5.95;100.00;102574.69;4985969;28;20765;-72
2022/10/09 04:06:07;;;;;;;7.37;3.67;;;;;;;5.84;99.97;102573.97;4988728;28;20566;-71
2022/10/09 04:08:33;;;;;;;7.43;3.60;;;;;;;5.81;99.31;102570.38;5000317;28;20187;-71
2022/10/09 04:10:59;;;;;;;6.80;3.73;;;;;;;5.83;99.32;102558.63;4987261;28;20271;-71
2022/10/09 04:13:24;;;;;;;4.73;2.90;;;;;;;5.76;98.84;102569.16;4988561;28;20187;-72
2022/10/09 04:15:51;;;;;;;8.27;3.43;;;;;;;5.77;98.63;102570.91;4985827;28;20192;-71
2022/10/09 04:18:17;;;;;;;6.13;3.83;;;;;;;5.76;97.91;102571.69;4983803;28;20215;-72
2022/10/09 04:20:53;;;;;;;5.87;3.83;;;;;;;5.72;98.25;102572.25;5000026;28;20278;-71
2022/10/09 04:23:21;;;;;;;5.47;3.87;;;;;;;5.69;98.35;102569.50;4988001;28;20183;-71
2022/10/09 04:25:47;;;;;;;7.07;4.30;;;;;;;5.70;98.04;102573.81;4982815;28;20194;-71
2022/10/09 04:28:12;;;;;;;5.53;3.70;;;;;;;5.67;98.04;102571.94;4989717;28;20274;-70
2022/10/09 04:30:38;;;;;;;10.17;4.40;;;;;;;5.66;98.03;102565.09;4989032;28;20696;-71
2022/10/09 04:33:03;;;;;;;10.17;4.90;;;;;;;5.70;98.20;102567.06;4987433;28;20188;-71
2022/10/09 04:35:29;;;;;;;11.23;4.23;;;;;;;5.69;98.33;102569.50;4987731;28;20192;-71
2022/10/09 04:37:54;;;;;;;6.07;3.90;;;;;;;5.64;98.53;102573.41;4986447;28;20200;-72
2022/10/09 04:40:19;;;;;;;9.27;4.93;;;;;;;5.51;98.62;102579.34;4990305;28;20621;-71
2022/10/09 04:42:45;;;;;;;9.30;4.03;;;;;;;5.54;98.70;102573.56;4989317;28;20206;-70
2022/10/09 04:45:10;;;;;;;5.63;3.73;;;;;;;5.50;98.17;102567.41;4990786;28;20206;-71
2022/10/09 04:47:36;;;;;;;8.47;3.80;;;;;;;5.50;98.45;102567.41;4990011;28;20278;-71
2022/10/09 04:50:02;;;;;;;7.00;3.57;;;;;;;5.50;97.73;102566.53;4986299;28;20195;-70
2022/10/09 04:52:28;;;;;;;5.07;3.17;;;;;;;5.49;98.05;102563.13;4990612;28;20211;-70
2022/10/09 04:54:53;;;;;;;5.40;3.20;;;;;;;5.51;98.38;102574.25;4986324;28;20234;-71
2022/10/09 04:57:19;;;;;;;3.93;2.70;;;;;;;5.49;97.94;102570.75;4990547;28;20226;-71
2022/10/09 04:59:44;;;;;;;5.97;2.67;;;;;;;5.54;97.95;102568.50;4990278;28;20222;-70
2022/10/09 05:02:10;;;;;;;3.37;2.20;;;;;;;5.50;97.83;102569.06;4990487;28;20712;-72
2022/10/09 05:04:35;;;;;;;3.30;2.53;;;;;;;5.49;97.54;102565.66;4989168;28;20198;-72
2022/10/09 05:07:01;;;;;;;2.70;2.40;;;;;;;5.46;98.17;102565.44;5002800;28;20204;-70
2022/10/09 05:09:26;;;;;;;2.90;1.90;;;;;;;5.45;98.11;102566.22;5004858;28;20190;-72
2022/10/09 05:11:52;;;;;;;4.30;2.50;;;;;;;5.42;97.97;102577.81;4990450;28;20285;-72
2022/10/09 05:14:17;;;;;;;4.97;2.17;;;;;;;5.41;98.08;102571.88;4990133;28;20242;-71
2022/10/09 05:16:42;;;;;;;3.20;2.00;;;;;;;5.43;98.06;102577.06;4990499;28;20223;-71
2022/10/09 05:19:08;;;;;;;7.50;2.80;;;;;;;5.45;98.24;102571.31;4989428;28;20204;-71
2022/10/09 05:21:35;;;;;;;6.67;3.33;;;;;;;5.56;98.77;102577.09;5004668;28;20216;-71
2022/10/09 05:24:00;;;;;;;5.93;2.73;;;;;;;5.59;99.18;102579.84;4988020;28;20218;-71
2022/10/09 05:26:26;;;;;;;5.70;3.23;;;;;;;5.60;99.82;102574.88;4987781;28;20215;-71
2022/10/09 05:28:52;;;;;;;6.17;3.40;;;;;;;5.59;100.00;102582.38;4989965;28;20634;-70
2022/10/09 05:31:20;;;;;;;5.93;3.27;;;;;;;5.61;100.00;102584.25;4984837;28;20215;-71
2022/10/09 05:33:46;;;;;;;4.33;2.73;;;;;;;5.65;100.00;102583.69;4990198;28;20668;-70
2022/10/09 05:36:12;;;;;;;5.00;2.47;;;;;;;5.60;100.00;102582.50;4988322;28;20219;-70
2022/10/09 05:38:37;;;;;;;7.80;2.83;;;;;;;5.58;100.00;102578.94;4988631;28;20704;-71
2022/10/09 05:41:05;;;;;;;11.03;3.37;;;;;;;5.56;100.00;102582.16;4986642;28;20222;-71
2022/10/09 05:43:36;;;;;;;8.77;3.87;;;;;;;5.58;100.00;102580.63;4988895;28;20203;-71
2022/10/09 05:46:08;;;;;;;7.97;3.70;;;;;;;5.59;100.00;102583.28;4989868;28;20572;-70
2022/10/09 05:48:33;;;;;;;5.93;3.13;;;;;;;5.61;100.00;102576.63;4993345;28;20711;-71
2022/10/09 05:51:08;;;;;;;8.23;3.93;;;;;;;5.68;100.00;102585.53;4991609;28;20215;-70
2022/10/09 05:53:34;;;;;;;12.33;5.53;;;;;;;5.69;100.00;102592.38;4987091;28;20219;-72
2022/10/09 05:56:18;;;;;;;15.77;8.63;;;;;;;5.68;100.00;102585.53;4991118;28;20275;-71
2022/10/09 05:58:49;;;;;;;11.93;7.80;;;;;;;5.67;100.00;102588.88;4988972;28;20204;-72
2022/10/09 06:01:15;;;;;;;10.47;5.60;;;;;;;5.70;100.00;102589.03;4993125;28;20223;-71
2022/10/09 06:03:40;;;;;;;8.40;4.63;;;;;;;5.79;100.00;102587.13;4986105;28;20188;-71
2022/10/09 06:06:07;;;;;;;6.43;3.60;;;;;;;5.86;100.00;102592.78;4992944;28;20612;-72
2022/10/09 06:08:37;;;;;;;4.57;3.20;;;;;;;5.88;100.00;102591.19;4986560;28;20216;-70
2022/10/09 06:11:14;;;;;;;7.10;3.93;;;;;;;5.96;100.00;102604.41;4991556;28;20346;-70
2022/10/09 06:13:40;;;;;;;5.43;3.50;;;;;;;6.00;100.00;102597.09;4987641;28;20188;-70
2022/10/09 06:16:06;;;;;;;5.10;3.23;;;;;;;6.08;100.00;102600.13;4989075;28;20195;-71
2022/10/09 06:18:32;;;;;;;6.40;3.63;;;;;;;6.13;100.00;102603.84;4986056;28;20199;-71
2022/10/09 06:21:00;;;;;;;6.03;3.63;;;;;;;6.16;100.00;102604.94;4986457;28;20568;-70
2022/10/09 06:23:26;;;;;;;4.77;3.20;;;;;;;6.22;100.00;102596.81;4992513;28;20199;-70
2022/10/09 06:25:54;;;;;;;3.93;2.63;;;;;;;6.31;100.00;102600.81;4985725;28;20211;-70
2022/10/09 06:28:20;;;;;;;12.53;4.73;;;;;;;6.24;100.00;102610.50;4988545;28;20230;-72
2022/10/09 06:30:45;;;;;;;6.70;4.63;;;;;;;6.33;100.00;102604.38;4985561;28;20662;-70
2022/10/09 06:33:11;;;;;;;12.50;4.03;;;;;;;6.36;100.00;102614.72;4989293;28;20228;-71
2022/10/09 06:35:36;;;;;;;6.53;3.50;;;;;;;6.42;100.00;102619.31;4986719;28;20187;-72
2022/10/09 06:38:02;;;;;;;5.87;3.83;;;;;;;6.52;100.00;102611.50;4990065;28;20794;-69
2022/10/09 06:40:27;;;;;;;7.20;4.63;;;;;;;6.59;100.00;102608.56;4989605;28;20212;-71
2022/10/09 06:42:53;;;;;;;11.43;4.83;;;;;;;6.68;100.00;102615.09;4987276;28;20654;-71
2022/10/09 06:45:21;;;;;;;10.00;5.97;;;;;;;6.79;100.00;102620.88;5004965;28;20184;-71
2022/10/09 06:47:46;;;;;;;9.97;5.00;;;;;;;6.85;100.00;102619.59;4990449;28;20551;-71
2022/10/09 06:50:11;;;;;;;9.10;5.37;;;;;;;6.94;100.00;102634.56;4991348;28;20776;-71
2022/10/09 06:52:37;;;;;;;9.83;5.10;;;;;;;7.09;100.00;102627.91;4987418;28;20231;-72
2022/10/09 06:55:03;;;;;;;10.97;6.10;;;;;;;7.31;100.00;102634.38;4989910;28;20649;-70
2022/10/09 06:57:28;;;;;;;12.40;5.73;;;;;;;7.52;100.00;102629.72;4987009;28;20617;-71
2022/10/09 06:59:54;;;;;;;11.97;4.90;;;;;;;7.67;100.00;102623.88;4991233;28;20541;-70
2022/10/09 07:02:19;;;;;;;6.90;4.30;;;;;;;7.85;99.61;102632.59;4990869;28;20692;-71
2022/10/09 07:04:45;;;;;;;7.50;4.53;;;;;;;8.04;98.78;102632.88;4990702;28;20192;-71
2022/10/09 07:07:11;;;;;;;10.70;4.10;;;;;;;8.21;98.54;102638.97;4989648;28;20191;-71
2022/10/09 07:09:36;;;;;;;10.13;4.70;;;;;;;8.40;98.58;102631.59;4989919;28;20223;-72
2022/10/09 07:12:02;;;;;;;11.20;4.50;;;;;;;8.57;97.45;102631.72;4991911;28;20633;-70
2022/10/09 07:14:28;;;;;;;11.43;4.40;;;;;;;8.75;97.29;102629.34;5006941;28;20204;-71
2022/10/09 07:16:53;;;;;;;8.90;3.80;;;;;;;8.66;97.21;102629.69;4991010;28;20198;-71
2022/10/09 07:19:20;;;;;;;9.20;3.90;;;;;;;8.84;97.08;102629.84;4989937;28;20203;-72
2022/10/09 07:21:48;;;;;;;7.90;3.73;;;;;;;9.08;96.46;102628.63;4992204;28;20230;-71
2022/10/09 07:24:14;;;;;;;7.30;3.63;;;;;;;9.23;95.84;102640.53;4989471;28;20200;-72
2022/10/09 07:26:42;;;;;;;6.87;3.30;;;;;;;9.42;94.11;102629.59;4991467;28;20187;-71
2022/10/09 07:29:10;;;;;;;8.10;3.87;;;;;;;9.54;93.71;102632.81;4990761;28;20184;-70
2022/10/09 07:31:35;;;;;;;8.03;3.40;;;;;;;9.61;94.29;102629.75;4991806;28;20212;-72
2022/10/09 07:34:01;;;;;;;7.63;4.07;;;;;;;9.77;93.69;102630.63;4989649;28;20191;-71
2022/10/09 07:36:27;;;;;;;7.73;3.67;;;;;;;9.82;93.06;102636.84;4991774;28;20184;-71
2022/10/09 07:38:55;;;;;;;8.57;3.60;;;;;;;10.01;92.85;102639.56;4990609;28;20211;-70
2022/10/09 07:41:21;;;;;;;8.83;3.87;;;;;;;10.07;91.17;102633.88;4990283;28;20219;-70
2022/10/09 07:43:47;;;;;;;8.43;3.80;;;;;;;9.80;91.30;102645.25;4985269;28;20665;-70
2022/10/09 07:46:15;;;;;;;10.23;3.90;;;;;;;10.27;91.10;102640.88;4990615;28;20266;-71
2022/10/09 07:48:40;;;;;;;9.57;3.83;;;;;;;10.52;90.34;102642.16;4990891;28;20206;-70
2022/10/09 07:51:10;;;;;;;8.70;3.73;;;;;;;10.50;89.39;102638.63;4989510;28;20203;-71
2022/10/09 07:53:37;;;;;;;11.40;4.10;;;;;;;10.99;88.28;102640.16;4986588;28;20191;-71
2022/10/09 07:56:03;;;;;;;9.90;3.60;;;;;;;10.86;87.31;102644.63;4980969;28;20234;-71
2022/10/09 07:58:29;;;;;;;7.87;3.40;;;;;;;11.11;86.32;102642.41;4987356;28;20204;-70
2022/10/09 08:00:55;;;;;;;5.97;2.77;;;;;;;11.35;85.32;102638.38;4988159;28;20215;-70
2022/10/09 08:03:20;;;;;;;6.70;3.03;;;;;;;11.56;84.54;102637.66;4988282;28;20227;-71
2022/10/09 08:05:55;;;;;;;7.53;3.20;;;;;;;11.24;85.13;102657.53;4988384;28;20192;-72
2022/10/09 08:08:21;;;;;;;6.63;3.03;;;;;;;11.72;84.46;102652.94;4987683;28;20196;-72
2022/10/09 08:10:46;;;;;;;8.37;2.90;;;;;;;11.64;83.87;102643.13;5002658;28;20633;-71
2022/10/09 08:13:12;;;;;;;5.83;3.23;;;;;;;11.80;84.08;102646.44;4987077;28;20187;-71
2022/10/09 08:15:41;;;;;;;10.37;3.03;;;;;;;12.27;83.09;102648.47;4988725;28;20277;-71
2022/10/09 08:18:08;;;;;;;7.93;3.40;;;;;;;12.48;82.02;102644.19;4985493;28;20338;-71
2022/10/09 08:20:34;;;;;;;7.47;3.10;;;;;;;12.88;79.74;102643.28;4987972;28;20215;-70
2022/10/09 08:22:59;;;;;;;6.13;2.80;;;;;;;12.66;80.64;102643.25;4987280;28;20200;-71
2022/10/09 08:25:24;;;;;;;10.70;3.50;;;;;;;12.60;81.37;102648.16;4988143;28;20715;-71
2022/10/09 08:27:54;;;;;;;7.10;3.20;;;;;;;12.99;79.66;102651.44;4983986;28;20211;-71
2022/10/09 08:30:20;;;;;;;5.67;2.50;;;;;;;13.26;78.68;102649.03;4986031;28;20206;-71
2022/10/09 08:32:46;;;;;;;8.40;3.77;;;;;;;13.53;78.70;102653.47;4987928;28;20410;-71
2022/10/09 08:35:11;;;;;;;6.00;3.20;;;;;;;13.29;79.71;102643.97;4987405;28;20226;-71
2022/10/09 08:37:37;;;;;;;9.33;3.67;;;;;;;14.10;78.59;102650.41;4987525;28;20192;-71
2022/10/09 08:40:03;;;;;;;5.67;3.17;;;;;;;14.45;76.29;102655.03;4999586;28;20942;-70
2022/10/09 08:42:43;;;;;;;6.73;3.23;;;;;;;14.50;75.17;102655.22;4984286;28;20196;-72
2022/10/09 08:45:16;;;;;;;4.97;2.40;;;;;;;14.05;75.97;102651.06;4982185;28;20196;-71
2022/10/09 08:47:46;;;;;;;7.33;2.83;;;;;;;14.27;75.46;102649.28;4984548;28;20191;-72
2022/10/09 08:50:14;;;;;;;8.63;2.87;;;;;;;14.56;73.78;102651.13;4983855;28;20611;-72
2022/10/09 08:53:07;;;;;;;6.53;2.72;;;;;;;15.46;72.10;102640.13;4987174;28;20274;-72
2022/10/09 08:56:08;;;;;;;7.65;2.33;;;;;;;16.97;67.13;102638.03;4981559;28;20199;-69
2022/10/09 08:58:38;;;;;;;5.18;2.63;;;;;;;19.12;59.83;102619.50;4983446;28;20270;-72
2022/10/09 09:01:17;;;;;;;6.63;2.75;;;;;;;20.03;53.60;102622.31;5016382;28;20243;-73
2022/10/09 09:03:51;;;;;;;5.13;2.72;;;;;;;20.85;50.79;102622.09;4988215;28;20560;-72
2022/10/09 09:06:35;;;;;;;4.63;1.85;;;;;;;20.42;52.18;102626.16;4985755;28;20203;-72
2022/10/09 09:09:24;;;;;;;5.57;2.25;;;;;;;21.46;49.59;102626.81;4989431;28;20265;-72
2022/10/09 09:12:18;;;;;;;5.15;2.13;;;;;;;22.59;47.35;102620.00;4987410;28;20242;-73
2022/10/09 09:14:59;;;;;;;4.32;2.03;;;;;;;23.25;45.19;102619.84;4984641;28;20665;-72
2022/10/09 09:17:47;;;;;;;5.07;2.08;;;;;;;24.32;42.60;102611.34;4986910;28;20192;-73
2022/10/09 09:20:24;;;;;;;4.97;2.25;;;;;;;24.06;43.48;102621.16;4985386;28;20265;-73
2022/10/09 09:22:50;;;;;;;5.05;1.90;;;;;;;25.61;40.00;102607.28;4985855;28;20187;-72
2022/10/09 09:25:27;;;;;;;5.93;2.35;;;;;;;25.74;39.34;102611.47;4986262;28;20191;-69
2022/10/09 09:27:56;;;;;;;6.15;2.28;;;;;;;26.38;38.68;102604.34;4984980;28;20281;-69
2022/10/09 09:30:30;;;;;;;5.35;1.98;;;;;;;25.88;37.96;102607.72;4985207;28;20249;-71
2022/10/09 09:33:10;;;;;;;6.50;2.00;;;;;;;26.61;37.11;102599.56;4986693;28;20246;-72
2022/10/09 09:35:47;;;;;;;4.25;1.85;;;;;;;25.28;39.03;102599.88;4986781;28;20195;-71
2022/10/09 09:38:14;;;;;;;6.63;2.15;;;;;;;25.76;38.32;102592.19;4985884;28;20583;-73
2022/10/09 09:40:39;;;;;;;5.32;1.92;;;;;;;26.91;37.23;102598.97;4986655;28;20342;-72
2022/10/09 09:43:18;;;;;;;3.80;1.80;;;;;;;27.27;36.03;102592.97;4985831;28;20259;-73
2022/10/09 09:45:44;;;;;;;4.45;1.73;;;;;;;26.83;35.40;102592.97;4984498;28;20188;-72
2022/10/09 09:48:34;;;;;;;2.83;1.50;;;;;;;27.32;35.25;102586.72;4987722;28;20176;-72
2022/10/09 09:51:01;;;;;;;4.75;1.90;;;;;;;26.48;37.06;102590.13;4985911;28;20245;-72
2022/10/09 09:53:36;;;;;;;4.10;1.90;;;;;;;28.01;35.15;102584.25;4985036;28;20188;-72
2022/10/09 09:56:03;;;;;;;5.72;1.73;;;;;;;28.59;33.01;102580.09;4976376;28;20274;-72
2022/10/09 09:58:35;;;;;;;3.10;1.67;;;;;;;30.26;31.66;102563.50;4983619;28;20220;-73
2022/10/09 10:01:02;;;;;;;4.55;2.20;;;;;;;30.10;31.44;102576.34;4986502;28;20295;-71
2022/10/09 10:03:29;;;;;;;4.47;1.80;;;;;;;30.39;30.49;102565.69;4996977;28;20243;-70
2022/10/09 10:05:55;;;;;;;3.53;1.85;;;;;;;30.61;31.09;102569.28;4986452;28;20282;-71
2022/10/09 10:08:26;;;;;;;3.58;1.80;;;;;;;32.42;28.94;102566.47;4985190;28;20314;-71
2022/10/09 10:10:55;;;;;;;4.57;1.77;;;;;;;30.03;31.21;102573.03;4985906;28;20211;-68
2022/10/09 10:13:32;;;;;;;6.00;1.80;;;;;;;31.32;29.43;102567.53;4985694;28;20192;-71
2022/10/09 10:15:58;;;;;;;5.40;2.30;;;;;;;31.85;28.54;102555.66;4981161;28;20225;-70
2022/10/09 10:18:27;;;;;;;5.45;2.00;;;;;;;32.14;27.97;102554.44;4985629;28;20275;-71
2022/10/09 10:21:01;;;;;;;5.18;1.65;;;;;;;32.05;27.57;102565.44;4985506;28;20216;-72
2022/10/09 10:23:35;;;;;;;4.47;1.80;;;;;;;25.19;37.30;102595.56;4983560;28;20275;-73
2022/10/09 10:26:25;;;;;;;4.75;1.85;;;;;;;27.22;34.32;102579.91;4987194;28;20253;-72
2022/10/09 10:28:58;;;;;;;5.78;1.70;;;;;;;29.75;30.30;102571.38;4985927;28;20211;-73
2022/10/09 10:31:47;;;;;;;5.68;1.60;;;;;;;30.43;30.01;102563.78;4985934;28;20223;-71
2022/10/09 10:34:23;;;;;;;5.65;2.05;;;;;;;30.19;30.32;102564.66;4984451;28;20228;-71
2022/10/09 10:36:58;;;;;;;4.00;1.80;;;;;;;30.50;29.50;102566.16;4986162;28;20206;-72
2022/10/09 10:39:36;;;;;;;2.97;1.50;;;;;;;31.35;28.00;102556.78;4985814;28;20316;-72
2022/10/09 10:42:08;;;;;;;3.53;1.90;;;;;;;32.84;27.30;102555.75;4987383;28;20219;-72
2022/10/09 10:44:42;;;;;;;3.05;1.55;;;;;;;32.09;28.02;102553.78;4988980;28;20200;-70
2022/10/09 10:47:15;;;;;;;3.70;1.80;;;;;;;30.73;28.66;102558.28;4988422;28;20572;-70
2022/10/09 10:49:40;;;;;;;3.53;1.60;;;;;;;32.34;26.79;102549.16;4986906;28;20194;-71
2022/10/09 10:52:39;;;;;;;4.97;1.58;;;;;;;29.63;29.88;102556.78;4984960;28;20211;-69
2022/10/09 10:55:17;;;;;;;4.97;1.60;;;;;;;25.40;37.01;102568.22;4987665;28;20184;-70
2022/10/09 10:58:12;;;;;;;3.88;1.73;;;;;;;32.72;27.66;102537.69;4967956;28;20294;-70
2022/10/09 11:00:47;;;;;;;4.40;1.60;;;;;;;31.70;27.76;102537.69;4957568;28;20446;-70
2022/10/09 11:03:39;;;;;;;3.22;1.42;;;;;;;33.44;25.60;102531.63;4997807;28;20198;-73
2022/10/09 11:06:36;;;;;;;5.03;1.67;;;;;;;33.29;25.81;102519.06;4992751;28;20187;-73
2022/10/09 11:09:07;;;;;;;5.00;1.77;;;;;;;34.49;24.31;102515.59;5006599;28;20688;-72
2022/10/09 11:11:38;;;;;;;5.05;1.58;;;;;;;33.32;24.97;102519.81;5007769;28;20767;-71
2022/10/09 11:14:22;;;;;;;3.08;1.48;;;;;;;31.44;27.88;102521.13;4990200;28;20200;-72
2022/10/09 11:17:05;;;;;;;5.57;1.63;;;;;;;32.95;25.87;102513.63;4989921;28;20187;-69
2022/10/09 11:19:40;;;;;;;3.33;1.80;;;;;;;32.79;25.25;102513.50;4989918;28;20232;-70
2022/10/09 11:22:33;;;;;;;3.88;1.80;;;;;;;31.19;27.61;102517.69;4990170;28;20226;-71
2022/10/09 11:25:21;;;;;;;6.15;1.98;;;;;;;31.37;27.41;102511.69;4989870;28;20194;-70
2022/10/09 11:28:09;;;;;;;3.92;1.48;;;;;;;32.95;25.37;102511.81;4988539;28;20235;-71
2022/10/09 11:30:57;;;;;;;3.95;1.70;;;;;;;32.96;25.49;102513.53;5002852;28;20286;-70
2022/10/09 11:33:34;;;;;;;4.25;1.42;;;;;;;25.08;36.15;102542.38;4990843;28;20188;-70
2022/10/09 11:36:11;;;;;;;5.85;1.83;;;;;;;22.85;41.38;102558.13;4990051;28;20540;-72
2022/10/09 11:38:44;;;;;;;14.30;6.33;;;;;;;21.57;43.98;102557.28;4987344;28;20224;-70
2022/10/09 11:41:11;;;;;;;10.33;7.03;;;;;;;20.79;44.11;102554.34;4983151;28;20211;-71